sensor_id;sensor_type;location;lat;lon;timestamp;noise_LAeq;noise_LA_min;noise_LA_max;noise_LA01;noise_LA95
70740;Laerm;58330;51.888;11.052;2023-02-21T00:02:09;35.76;33.59;39.36;;
70740;Laerm;58330;51.888;11.052;2023-02-21T00:04:53;35.93;34.03;44.90;;
70740;Laerm;58330;51.888;11.052;2023-02-21T00:07:38;35.74;34.00;37.86;;
70740;Laerm;58330;51.888;11.052;2023-02-21T00:10:22;35.64;33.67;38.00;;
70740;Laerm;58330;51.888;11.052;2023-02-21T00:13:06;35.62;33.62;38.87;;
70740;Laerm;58330;51.888;11.052;2023-02-21T00:15:50;35.63;33.83;37.72;;
70740;Laerm;58330;51.888;11.052;2023-02-21T00:18:34;35.94;34.03;41.25;;
70740;Laerm;58330;51.888;11.052;2023-02-21T00:21:18;35.82;34.14;38.43;;
70740;Laerm;58330;51.888;11.052;2023-02-21T00:24:03;35.92;34.07;38.69;;
70740;Laerm;58330;51.888;11.052;2023-02-21T00:26:47;36.18;34.16;39.38;;
70740;Laerm;58330;51.888;11.052;2023-02-21T00:29:31;36.05;34.01;38.72;;
70740;Laerm;58330;51.888;11.052;2023-02-21T00:32:15;35.92;34.02;38.68;;
70740;Laerm;58330;51.888;11.052;2023-02-21T00:34:59;35.81;34.04;38.26;;
70740;Laerm;58330;51.888;11.052;2023-02-21T00:37:43;35.64;33.81;38.92;;
70740;Laerm;58330;51.888;11.052;2023-02-21T00:40:29;35.89;33.94;39.87;;
70740;Laerm;58330;51.888;11.052;2023-02-21T00:43:12;36.39;34.03;43.05;;
70740;Laerm;58330;51.888;11.052;2023-02-21T00:45:56;36.22;33.66;39.85;;
70740;Laerm;58330;51.888;11.052;2023-02-21T00:48:40;36.60;34.02;40.17;;
70740;Laerm;58330;51.888;11.052;2023-02-21T00:51:24;36.62;34.47;39.59;;
70740;Laerm;58330;51.888;11.052;2023-02-21T00:54:08;36.18;34.19;39.85;;
70740;Laerm;58330;51.888;11.052;2023-02-21T00:56:53;36.52;34.57;39.61;;
70740;Laerm;58330;51.888;11.052;2023-02-21T00:59:37;35.93;34.19;38.15;;
70740;Laerm;58330;51.888;11.052;2023-02-21T01:02:21;36.25;34.18;39.81;;
70740;Laerm;58330;51.888;11.052;2023-02-21T01:05:05;38.16;34.44;42.60;;
70740;Laerm;58330;51.888;11.052;2023-02-21T01:07:48;38.80;35.26;43.39;;
70740;Laerm;58330;51.888;11.052;2023-02-21T01:10:32;38.92;35.35;43.33;;
70740;Laerm;58330;51.888;11.052;2023-02-21T01:13:17;38.48;35.40;42.15;;
70740;Laerm;58330;51.888;11.052;2023-02-21T01:16:01;38.53;35.63;42.27;;
70740;Laerm;58330;51.888;11.052;2023-02-21T01:18:45;38.77;35.66;42.63;;
70740;Laerm;58330;51.888;11.052;2023-02-21T01:21:29;37.73;35.03;41.95;;
70740;Laerm;58330;51.888;11.052;2023-02-21T01:24:14;37.07;34.85;40.34;;
70740;Laerm;58330;51.888;11.052;2023-02-21T01:26:58;37.17;34.89;40.43;;
70740;Laerm;58330;51.888;11.052;2023-02-21T01:29:43;37.35;34.99;40.58;;
70740;Laerm;58330;51.888;11.052;2023-02-21T01:32:27;37.25;34.55;39.97;;
70740;Laerm;58330;51.888;11.052;2023-02-21T01:35:11;37.12;34.69;40.33;;
70740;Laerm;58330;51.888;11.052;2023-02-21T01:37:55;36.94;34.84;41.00;;
70740;Laerm;58330;51.888;11.052;2023-02-21T01:40:39;36.77;34.28;39.96;;
70740;Laerm;58330;51.888;11.052;2023-02-21T01:43:23;36.58;34.71;40.22;;
70740;Laerm;58330;51.888;11.052;2023-02-21T01:46:08;36.37;34.38;38.75;;
70740;Laerm;58330;51.888;11.052;2023-02-21T01:48:53;36.54;34.47;39.21;;
70740;Laerm;58330;51.888;11.052;2023-02-21T01:51:38;36.48;34.03;40.46;;
70740;Laerm;58330;51.888;11.052;2023-02-21T01:54:23;36.81;34.45;48.81;;
70740;Laerm;58330;51.888;11.052;2023-02-21T01:57:09;36.16;34.17;38.36;;
70740;Laerm;58330;51.888;11.052;2023-02-21T01:59:54;36.27;34.07;38.48;;
70740;Laerm;58330;51.888;11.052;2023-02-21T02:02:43;36.38;34.70;39.44;;
70740;Laerm;58330;51.888;11.052;2023-02-21T02:05:30;36.13;34.43;38.56;;
70740;Laerm;58330;51.888;11.052;2023-02-21T02:08:14;36.06;34.42;37.92;;
70740;Laerm;58330;51.888;11.052;2023-02-21T02:11:03;36.22;34.42;39.79;;
70740;Laerm;58330;51.888;11.052;2023-02-21T02:13:58;36.79;34.44;40.12;;
70740;Laerm;58330;51.888;11.052;2023-02-21T02:16:31;37.51;34.86;41.75;;
70740;Laerm;58330;51.888;11.052;2023-02-21T02:19:24;38.30;35.34;43.05;;
70740;Laerm;58330;51.888;11.052;2023-02-21T02:25:05;37.96;35.49;40.94;;
70740;Laerm;58330;51.888;11.052;2023-02-21T02:27:39;38.19;35.77;40.92;;
70740;Laerm;58330;51.888;11.052;2023-02-21T02:30:16;37.87;35.51;40.46;;
70740;Laerm;58330;51.888;11.052;2023-02-21T02:32:51;37.93;35.33;40.44;;
70740;Laerm;58330;51.888;11.052;2023-02-21T02:35:22;37.51;34.75;41.35;;
70740;Laerm;58330;51.888;11.052;2023-02-21T02:37:54;37.60;34.82;40.61;;
70740;Laerm;58330;51.888;11.052;2023-02-21T02:40:24;36.70;34.52;39.64;;
70740;Laerm;58330;51.888;11.052;2023-02-21T02:42:55;37.58;34.91;40.13;;
70740;Laerm;58330;51.888;11.052;2023-02-21T02:45:24;37.34;34.52;40.12;;
70740;Laerm;58330;51.888;11.052;2023-02-21T02:47:54;37.23;34.54;39.41;;
70740;Laerm;58330;51.888;11.052;2023-02-21T02:50:23;37.03;34.46;42.52;;
70740;Laerm;58330;51.888;11.052;2023-02-21T02:52:51;36.68;34.49;39.37;;
70740;Laerm;58330;51.888;11.052;2023-02-21T02:55:28;36.92;34.45;40.00;;
70740;Laerm;58330;51.888;11.052;2023-02-21T02:57:57;36.58;34.23;38.90;;
70740;Laerm;58330;51.888;11.052;2023-02-21T03:00:23;36.90;34.06;40.07;;
70740;Laerm;58330;51.888;11.052;2023-02-21T03:02:54;37.05;34.32;40.81;;
70740;Laerm;58330;51.888;11.052;2023-02-21T03:05:31;36.20;34.33;38.78;;
70740;Laerm;58330;51.888;11.052;2023-02-21T03:08:02;36.62;34.32;40.05;;
70740;Laerm;58330;51.888;11.052;2023-02-21T03:10:36;37.21;34.37;41.84;;
70740;Laerm;58330;51.888;11.052;2023-02-21T03:13:04;37.97;35.09;45.46;;
70740;Laerm;58330;51.888;11.052;2023-02-21T03:15:33;36.90;34.63;40.85;;
70740;Laerm;58330;51.888;11.052;2023-02-21T03:18:02;36.36;34.57;37.94;;
70740;Laerm;58330;51.888;11.052;2023-02-21T03:20:32;42.56;35.13;50.13;;
70740;Laerm;58330;51.888;11.052;2023-02-21T03:23:00;44.36;35.87;52.44;;
70740;Laerm;58330;51.888;11.052;2023-02-21T03:25:27;43.92;35.97;51.27;;
70740;Laerm;58330;51.888;11.052;2023-02-21T03:27:55;43.86;34.94;50.67;;
70740;Laerm;58330;51.888;11.052;2023-02-21T03:30:21;44.20;35.90;51.34;;
70740;Laerm;58330;51.888;11.052;2023-02-21T03:32:48;44.15;36.10;52.31;;
70740;Laerm;58330;51.888;11.052;2023-02-21T03:35:16;44.51;35.95;52.36;;
70740;Laerm;58330;51.888;11.052;2023-02-21T03:37:45;44.65;36.11;52.30;;
70740;Laerm;58330;51.888;11.052;2023-02-21T03:40:13;45.06;35.87;52.06;;
70740;Laerm;58330;51.888;11.052;2023-02-21T03:42:40;44.93;36.02;53.65;;
70740;Laerm;58330;51.888;11.052;2023-02-21T03:45:07;44.93;35.87;53.01;;
70740;Laerm;58330;51.888;11.052;2023-02-21T03:47:34;45.14;35.43;53.11;;
70740;Laerm;58330;51.888;11.052;2023-02-21T03:50:00;45.05;36.10;52.20;;
70740;Laerm;58330;51.888;11.052;2023-02-21T03:52:26;44.11;35.59;52.90;;
70740;Laerm;58330;51.888;11.052;2023-02-21T03:54:54;44.18;35.95;51.39;;
70740;Laerm;58330;51.888;11.052;2023-02-21T03:57:20;43.89;36.31;53.45;;
70740;Laerm;58330;51.888;11.052;2023-02-21T03:59:46;44.01;35.61;50.89;;
70740;Laerm;58330;51.888;11.052;2023-02-21T04:02:13;44.18;35.78;52.16;;
70740;Laerm;58330;51.888;11.052;2023-02-21T04:04:39;44.89;35.84;54.01;;
70740;Laerm;58330;51.888;11.052;2023-02-21T04:07:05;43.92;35.47;52.87;;
70740;Laerm;58330;51.888;11.052;2023-02-21T04:09:32;44.38;36.40;53.34;;
70740;Laerm;58330;51.888;11.052;2023-02-21T04:12:00;43.95;36.18;53.16;;
70740;Laerm;58330;51.888;11.052;2023-02-21T04:14:26;43.75;36.09;54.36;;
70740;Laerm;58330;51.888;11.052;2023-02-21T04:16:52;43.96;36.46;54.06;;
70740;Laerm;58330;51.888;11.052;2023-02-21T04:19:19;42.55;36.51;51.00;;
70740;Laerm;58330;51.888;11.052;2023-02-21T04:21:45;43.19;36.70;49.91;;
70740;Laerm;58330;51.888;11.052;2023-02-21T04:24:11;43.35;36.15;54.72;;
70740;Laerm;58330;51.888;11.052;2023-02-21T04:26:37;44.65;36.57;54.56;;
70740;Laerm;58330;51.888;11.052;2023-02-21T04:29:05;44.01;36.87;50.59;;
70740;Laerm;58330;51.888;11.052;2023-02-21T04:31:31;43.80;36.52;54.60;;
70740;Laerm;58330;51.888;11.052;2023-02-21T04:33:58;45.82;36.79;55.71;;
70740;Laerm;58330;51.888;11.052;2023-02-21T04:36:24;46.12;36.86;56.18;;
70740;Laerm;58330;51.888;11.052;2023-02-21T04:38:50;43.25;36.96;50.26;;
70740;Laerm;58330;51.888;11.052;2023-02-21T04:41:17;43.34;36.94;49.46;;
70740;Laerm;58330;51.888;11.052;2023-02-21T04:43:43;42.74;36.88;51.65;;
70740;Laerm;58330;51.888;11.052;2023-02-21T04:46:11;42.76;36.00;54.52;;
70740;Laerm;58330;51.888;11.052;2023-02-21T04:48:40;43.36;36.68;52.01;;
70740;Laerm;58330;51.888;11.052;2023-02-21T04:51:06;42.94;36.34;49.34;;
70740;Laerm;58330;51.888;11.052;2023-02-21T04:53:32;43.27;36.58;48.43;;
70740;Laerm;58330;51.888;11.052;2023-02-21T04:55:59;42.93;36.43;53.43;;
70740;Laerm;58330;51.888;11.052;2023-02-21T04:58:25;42.99;36.27;50.41;;
70740;Laerm;58330;51.888;11.052;2023-02-21T05:00:51;43.14;36.25;47.63;;
70740;Laerm;58330;51.888;11.052;2023-02-21T05:03:19;42.99;36.67;48.43;;
70740;Laerm;58330;51.888;11.052;2023-02-21T05:05:46;44.24;36.31;52.72;;
70740;Laerm;58330;51.888;11.052;2023-02-21T05:08:12;43.81;36.40;52.41;;
70740;Laerm;58330;51.888;11.052;2023-02-21T05:10:38;42.32;36.40;53.84;;
70740;Laerm;58330;51.888;11.052;2023-02-21T05:13:05;43.33;36.47;51.98;;
70740;Laerm;58330;51.888;11.052;2023-02-21T05:15:31;43.26;36.48;51.56;;
70740;Laerm;58330;51.888;11.052;2023-02-21T05:17:57;42.70;36.62;49.94;;
70740;Laerm;58330;51.888;11.052;2023-02-21T05:20:25;43.12;36.89;51.41;;
70740;Laerm;58330;51.888;11.052;2023-02-21T05:22:52;42.58;36.14;51.52;;
70740;Laerm;58330;51.888;11.052;2023-02-21T05:25:19;42.76;36.36;52.99;;
70740;Laerm;58330;51.888;11.052;2023-02-21T05:27:46;44.73;35.99;53.75;;
70740;Laerm;58330;51.888;11.052;2023-02-21T05:30:13;44.46;36.68;52.28;;
70740;Laerm;58330;51.888;11.052;2023-02-21T05:32:41;43.46;36.81;52.58;;
70740;Laerm;58330;51.888;11.052;2023-02-21T05:35:07;43.42;36.18;50.57;;
70740;Laerm;58330;51.888;11.052;2023-02-21T05:37:35;43.21;36.56;51.91;;
70740;Laerm;58330;51.888;11.052;2023-02-21T05:40:01;42.60;36.39;50.88;;
70740;Laerm;58330;51.888;11.052;2023-02-21T05:42:29;42.14;36.36;52.06;;
70740;Laerm;58330;51.888;11.052;2023-02-21T05:44:55;40.43;36.27;49.90;;
70740;Laerm;58330;51.888;11.052;2023-02-21T05:47:22;40.09;35.90;51.91;;
70740;Laerm;58330;51.888;11.052;2023-02-21T05:49:48;39.86;36.33;48.87;;
70740;Laerm;58330;51.888;11.052;2023-02-21T05:52:15;39.73;36.85;52.05;;
70740;Laerm;58330;51.888;11.052;2023-02-21T05:54:43;40.83;36.73;51.79;;
70740;Laerm;58330;51.888;11.052;2023-02-21T05:57:09;41.87;37.12;49.58;;
70740;Laerm;58330;51.888;11.052;2023-02-21T05:59:36;41.77;37.52;49.01;;
70740;Laerm;58330;51.888;11.052;2023-02-21T06:02:02;40.91;37.11;48.54;;
70740;Laerm;58330;51.888;11.052;2023-02-21T06:04:28;40.28;36.11;48.76;;
70740;Laerm;58330;51.888;11.052;2023-02-21T06:06:55;40.83;37.15;49.70;;
70740;Laerm;58330;51.888;11.052;2023-02-21T06:09:21;41.78;36.94;53.36;;
70740;Laerm;58330;51.888;11.052;2023-02-21T06:11:48;41.57;37.21;48.69;;
70740;Laerm;58330;51.888;11.052;2023-02-21T06:14:15;41.04;36.64;50.29;;
70740;Laerm;58330;51.888;11.052;2023-02-21T06:16:42;41.43;36.63;51.09;;
70740;Laerm;58330;51.888;11.052;2023-02-21T06:19:09;41.24;36.81;55.03;;
70740;Laerm;58330;51.888;11.052;2023-02-21T06:21:36;40.54;37.21;50.37;;
70740;Laerm;58330;51.888;11.052;2023-02-21T06:24:04;40.17;37.43;49.77;;
70740;Laerm;58330;51.888;11.052;2023-02-21T06:26:37;40.72;37.16;49.83;;
70740;Laerm;58330;51.888;11.052;2023-02-21T06:29:06;41.45;36.54;49.14;;
70740;Laerm;58330;51.888;11.052;2023-02-21T06:31:33;40.32;36.44;46.10;;
70740;Laerm;58330;51.888;11.052;2023-02-21T06:34:00;41.06;36.67;48.93;;
70740;Laerm;58330;51.888;11.052;2023-02-21T06:36:27;40.60;37.22;50.95;;
70740;Laerm;58330;51.888;11.052;2023-02-21T06:38:55;40.54;36.95;48.36;;
70740;Laerm;58330;51.888;11.052;2023-02-21T06:41:22;40.76;36.99;49.54;;
70740;Laerm;58330;51.888;11.052;2023-02-21T06:43:49;41.12;36.74;50.41;;
70740;Laerm;58330;51.888;11.052;2023-02-21T06:46:17;42.37;36.66;51.30;;
70740;Laerm;58330;51.888;11.052;2023-02-21T06:48:45;41.72;36.54;50.13;;
70740;Laerm;58330;51.888;11.052;2023-02-21T06:51:12;39.33;36.19;45.06;;
70740;Laerm;58330;51.888;11.052;2023-02-21T06:53:39;39.19;35.93;47.92;;
70740;Laerm;58330;51.888;11.052;2023-02-21T06:56:05;40.02;36.40;49.58;;
70740;Laerm;58330;51.888;11.052;2023-02-21T06:58:32;38.60;35.78;48.62;;
70740;Laerm;58330;51.888;11.052;2023-02-21T07:00:59;39.24;36.14;46.78;;
70740;Laerm;58330;51.888;11.052;2023-02-21T07:03:28;38.02;35.35;45.46;;
70740;Laerm;58330;51.888;11.052;2023-02-21T07:05:55;37.79;35.65;46.41;;
70740;Laerm;58330;51.888;11.052;2023-02-21T07:08:21;39.32;35.76;47.81;;
70740;Laerm;58330;51.888;11.052;2023-02-21T07:10:49;38.81;35.84;49.22;;
70740;Laerm;58330;51.888;11.052;2023-02-21T07:13:16;38.81;36.06;46.30;;
70740;Laerm;58330;51.888;11.052;2023-02-21T07:15:42;39.27;36.08;46.97;;
70740;Laerm;58330;51.888;11.052;2023-02-21T07:18:09;39.84;35.88;50.67;;
70740;Laerm;58330;51.888;11.052;2023-02-21T07:20:37;39.77;35.63;49.24;;
70740;Laerm;58330;51.888;11.052;2023-02-21T07:23:03;39.29;35.80;48.81;;
70740;Laerm;58330;51.888;11.052;2023-02-21T07:25:29;38.33;35.55;50.80;;
70740;Laerm;58330;51.888;11.052;2023-02-21T07:27:56;38.37;35.51;45.23;;
70740;Laerm;58330;51.888;11.052;2023-02-21T07:30:22;38.60;35.72;46.21;;
70740;Laerm;58330;51.888;11.052;2023-02-21T07:32:48;39.29;35.80;49.37;;
70740;Laerm;58330;51.888;11.052;2023-02-21T07:35:15;38.82;35.52;47.50;;
70740;Laerm;58330;51.888;11.052;2023-02-21T07:37:42;38.88;35.58;46.81;;
70740;Laerm;58330;51.888;11.052;2023-02-21T07:40:09;38.74;35.66;44.98;;
70740;Laerm;58330;51.888;11.052;2023-02-21T07:42:36;39.56;35.51;52.30;;
70740;Laerm;58330;51.888;11.052;2023-02-21T07:45:04;39.90;35.65;45.92;;
70740;Laerm;58330;51.888;11.052;2023-02-21T07:47:43;38.11;35.56;43.28;;
70740;Laerm;58330;51.888;11.052;2023-02-21T07:50:10;37.97;35.57;45.09;;
70740;Laerm;58330;51.888;11.052;2023-02-21T07:52:36;39.29;35.67;45.75;;
70740;Laerm;58330;51.888;11.052;2023-02-21T07:55:05;38.13;35.89;42.72;;
70740;Laerm;58330;51.888;11.052;2023-02-21T07:57:31;38.82;35.65;47.15;;
70740;Laerm;58330;51.888;11.052;2023-02-21T07:59:58;38.44;35.51;47.10;;
70740;Laerm;58330;51.888;11.052;2023-02-21T08:02:24;38.32;35.80;47.11;;
70740;Laerm;58330;51.888;11.052;2023-02-21T08:04:51;38.43;35.31;47.12;;
70740;Laerm;58330;51.888;11.052;2023-02-21T08:07:20;37.19;34.51;46.22;;
70740;Laerm;58330;51.888;11.052;2023-02-21T08:09:46;37.51;34.81;47.75;;
70740;Laerm;58330;51.888;11.052;2023-02-21T08:12:14;37.34;34.69;44.64;;
70740;Laerm;58330;51.888;11.052;2023-02-21T08:14:40;39.10;35.42;47.67;;
70740;Laerm;58330;51.888;11.052;2023-02-21T08:17:07;38.81;35.09;46.95;;
70740;Laerm;58330;51.888;11.052;2023-02-21T08:19:33;37.93;35.12;45.06;;
70740;Laerm;58330;51.888;11.052;2023-02-21T08:21:59;38.04;35.01;45.75;;
70740;Laerm;58330;51.888;11.052;2023-02-21T08:24:26;38.35;34.80;47.48;;
70740;Laerm;58330;51.888;11.052;2023-02-21T08:26:52;37.95;34.65;43.85;;
70740;Laerm;58330;51.888;11.052;2023-02-21T08:29:20;38.91;34.80;45.84;;
70740;Laerm;58330;51.888;11.052;2023-02-21T08:31:47;41.06;35.55;47.64;;
70740;Laerm;58330;51.888;11.052;2023-02-21T08:34:13;40.78;35.25;47.90;;
70740;Laerm;58330;51.888;11.052;2023-02-21T08:36:40;40.57;35.38;49.34;;
70740;Laerm;58330;51.888;11.052;2023-02-21T08:39:10;46.51;36.00;78.27;;
70740;Laerm;58330;51.888;11.052;2023-02-21T08:41:37;41.78;35.31;70.63;;
70740;Laerm;58330;51.888;11.052;2023-02-21T08:44:04;43.03;35.36;76.90;;
70740;Laerm;58330;51.888;11.052;2023-02-21T08:46:32;39.27;35.13;47.36;;
70740;Laerm;58330;51.888;11.052;2023-02-21T08:48:58;38.66;35.47;47.06;;
70740;Laerm;58330;51.888;11.052;2023-02-21T08:51:25;38.95;35.61;46.34;;
70740;Laerm;58330;51.888;11.052;2023-02-21T08:53:52;38.57;35.49;46.39;;
70740;Laerm;58330;51.888;11.052;2023-02-21T08:56:20;38.55;35.67;47.76;;
70740;Laerm;58330;51.888;11.052;2023-02-21T08:58:46;46.23;35.44;81.76;;
70740;Laerm;58330;51.888;11.052;2023-02-21T09:01:13;38.09;35.05;45.24;;
70740;Laerm;58330;51.888;11.052;2023-02-21T09:03:40;38.17;34.77;51.90;;
70740;Laerm;58330;51.888;11.052;2023-02-21T09:06:07;38.29;34.78;51.74;;
70740;Laerm;58330;51.888;11.052;2023-02-21T09:08:34;36.95;34.61;44.42;;
70740;Laerm;58330;51.888;11.052;2023-02-21T09:11:01;37.76;34.60;45.35;;
70740;Laerm;58330;51.888;11.052;2023-02-21T09:13:27;37.18;34.32;54.04;;
70740;Laerm;58330;51.888;11.052;2023-02-21T09:15:54;38.43;34.17;46.94;;
70740;Laerm;58330;51.888;11.052;2023-02-21T09:18:21;38.46;33.95;52.72;;
70740;Laerm;58330;51.888;11.052;2023-02-21T09:20:49;38.47;34.22;49.32;;
70740;Laerm;58330;51.888;11.052;2023-02-21T09:23:16;38.36;34.35;49.48;;
70740;Laerm;58330;51.888;11.052;2023-02-21T09:25:44;37.65;33.31;45.59;;
70740;Laerm;58330;51.888;11.052;2023-02-21T09:28:10;37.58;32.21;48.37;;
70740;Laerm;58330;51.888;11.052;2023-02-21T09:30:36;35.29;31.96;50.11;;
70740;Laerm;58330;51.888;11.052;2023-02-21T09:33:03;35.04;32.36;40.53;;
70740;Laerm;58330;51.888;11.052;2023-02-21T09:35:29;37.10;32.32;47.88;;
70740;Laerm;58330;51.888;11.052;2023-02-21T09:37:57;37.13;32.70;50.83;;
70740;Laerm;58330;51.888;11.052;2023-02-21T09:40:28;36.75;32.37;47.02;;
70740;Laerm;58330;51.888;11.052;2023-02-21T09:42:59;36.96;33.26;44.31;;
70740;Laerm;58330;51.888;11.052;2023-02-21T09:45:26;36.57;32.42;49.22;;
70740;Laerm;58330;51.888;11.052;2023-02-21T09:47:55;36.19;32.31;46.46;;
70740;Laerm;58330;51.888;11.052;2023-02-21T09:50:24;37.66;32.46;47.57;;
70740;Laerm;58330;51.888;11.052;2023-02-21T09:52:54;36.37;32.51;45.51;;
70740;Laerm;58330;51.888;11.052;2023-02-21T09:55:25;38.70;32.75;49.21;;
70740;Laerm;58330;51.888;11.052;2023-02-21T09:57:53;36.25;32.79;46.41;;
70740;Laerm;58330;51.888;11.052;2023-02-21T10:00:20;37.72;33.16;47.35;;
70740;Laerm;58330;51.888;11.052;2023-02-21T10:02:51;37.53;32.99;48.77;;
70740;Laerm;58330;51.888;11.052;2023-02-21T10:05:21;37.47;32.48;47.68;;
70740;Laerm;58330;51.888;11.052;2023-02-21T10:07:55;36.31;33.30;45.30;;
70740;Laerm;58330;51.888;11.052;2023-02-21T10:10:26;36.91;32.73;46.43;;
70740;Laerm;58330;51.888;11.052;2023-02-21T10:12:55;37.87;33.21;51.93;;
70740;Laerm;58330;51.888;11.052;2023-02-21T10:15:29;39.51;33.63;48.98;;
70740;Laerm;58330;51.888;11.052;2023-02-21T10:18:01;38.38;33.77;51.38;;
70740;Laerm;58330;51.888;11.052;2023-02-21T10:20:31;38.36;32.98;54.46;;
70740;Laerm;58330;51.888;11.052;2023-02-21T10:23:00;37.09;33.05;46.23;;
70740;Laerm;58330;51.888;11.052;2023-02-21T10:25:29;37.28;32.76;47.20;;
70740;Laerm;58330;51.888;11.052;2023-02-21T10:27:57;37.02;33.09;43.98;;
70740;Laerm;58330;51.888;11.052;2023-02-21T10:30:26;35.56;32.36;41.89;;
70740;Laerm;58330;51.888;11.052;2023-02-21T10:32:54;37.32;32.93;45.15;;
70740;Laerm;58330;51.888;11.052;2023-02-21T10:35:20;40.16;33.28;49.88;;
70740;Laerm;58330;51.888;11.052;2023-02-21T10:37:53;38.83;34.07;50.26;;
70740;Laerm;58330;51.888;11.052;2023-02-21T10:40:25;37.72;33.48;46.72;;
70740;Laerm;58330;51.888;11.052;2023-02-21T10:42:55;37.25;33.15;47.01;;
70740;Laerm;58330;51.888;11.052;2023-02-21T10:45:25;38.12;33.23;49.60;;
70740;Laerm;58330;51.888;11.052;2023-02-21T10:47:55;37.77;33.31;45.79;;
70740;Laerm;58330;51.888;11.052;2023-02-21T10:50:41;37.78;33.16;43.69;;
70740;Laerm;58330;51.888;11.052;2023-02-21T10:53:08;38.78;33.00;49.99;;
70740;Laerm;58330;51.888;11.052;2023-02-21T10:55:34;35.40;32.08;40.22;;
70740;Laerm;58330;51.888;11.052;2023-02-21T10:58:06;37.38;33.27;46.32;;
70740;Laerm;58330;51.888;11.052;2023-02-21T11:00:34;39.59;34.42;50.94;;
70740;Laerm;58330;51.888;11.052;2023-02-21T11:03:03;38.73;34.30;47.16;;
70740;Laerm;58330;51.888;11.052;2023-02-21T11:05:31;37.02;33.46;41.36;;
70740;Laerm;58330;51.888;11.052;2023-02-21T11:07:58;38.45;33.90;48.19;;
70740;Laerm;58330;51.888;11.052;2023-02-21T11:10:26;40.00;33.65;53.81;;
70740;Laerm;58330;51.888;11.052;2023-02-21T11:13:03;37.76;33.01;45.82;;
70740;Laerm;58330;51.888;11.052;2023-02-21T11:15:32;39.28;33.47;50.53;;
70740;Laerm;58330;51.888;11.052;2023-02-21T11:18:03;36.27;32.66;45.42;;
70740;Laerm;58330;51.888;11.052;2023-02-21T11:20:30;38.48;32.42;48.92;;
70740;Laerm;58330;51.888;11.052;2023-02-21T11:22:57;36.30;32.55;44.69;;
70740;Laerm;58330;51.888;11.052;2023-02-21T11:25:24;39.26;33.74;48.64;;
70740;Laerm;58330;51.888;11.052;2023-02-21T11:27:58;36.57;33.03;46.19;;
70740;Laerm;58330;51.888;11.052;2023-02-21T11:30:26;37.42;31.66;46.33;;
70740;Laerm;58330;51.888;11.052;2023-02-21T11:32:55;47.71;31.95;64.59;;
70740;Laerm;58330;51.888;11.052;2023-02-21T11:35:24;40.26;32.05;61.25;;
70740;Laerm;58330;51.888;11.052;2023-02-21T11:37:52;39.95;32.97;67.28;;
70740;Laerm;58330;51.888;11.052;2023-02-21T11:40:22;36.56;32.81;50.72;;
70740;Laerm;58330;51.888;11.052;2023-02-21T11:42:49;37.74;33.71;45.68;;
70740;Laerm;58330;51.888;11.052;2023-02-21T11:45:18;36.01;31.98;47.58;;
70740;Laerm;58330;51.888;11.052;2023-02-21T11:47:49;38.96;32.60;52.65;;
70740;Laerm;58330;51.888;11.052;2023-02-21T11:50:20;37.91;33.20;47.82;;
70740;Laerm;58330;51.888;11.052;2023-02-21T11:52:49;38.51;32.93;49.11;;
70740;Laerm;58330;51.888;11.052;2023-02-21T11:55:18;36.74;32.77;45.37;;
70740;Laerm;58330;51.888;11.052;2023-02-21T11:57:49;37.21;32.72;45.68;;
70740;Laerm;58330;51.888;11.052;2023-02-21T12:00:23;36.30;33.15;44.03;;
70740;Laerm;58330;51.888;11.052;2023-02-21T12:05:41;41.22;32.80;58.57;;
70740;Laerm;58330;51.888;11.052;2023-02-21T12:08:25;37.87;33.05;48.35;;
70740;Laerm;58330;51.888;11.052;2023-02-21T12:10:58;38.37;32.89;52.21;;
70740;Laerm;58330;51.888;11.052;2023-02-21T12:13:29;36.49;32.33;46.25;;
70740;Laerm;58330;51.888;11.052;2023-02-21T12:16:00;38.62;33.53;49.74;;
70740;Laerm;58330;51.888;11.052;2023-02-21T12:18:38;39.43;33.86;48.66;;
70740;Laerm;58330;51.888;11.052;2023-02-21T12:21:14;38.87;33.48;45.96;;
70740;Laerm;58330;51.888;11.052;2023-02-21T12:23:46;40.44;34.24;52.02;;
70740;Laerm;58330;51.888;11.052;2023-02-21T12:26:30;37.43;33.15;47.05;;
70740;Laerm;58330;51.888;11.052;2023-02-21T12:29:06;36.83;32.38;51.36;;
70740;Laerm;58330;51.888;11.052;2023-02-21T12:31:42;35.10;31.48;40.60;;
70740;Laerm;58330;51.888;11.052;2023-02-21T12:34:16;35.74;31.87;41.28;;
70740;Laerm;58330;51.888;11.052;2023-02-21T12:36:53;42.47;32.79;58.09;;
70740;Laerm;58330;51.888;11.052;2023-02-21T12:39:29;38.17;32.99;60.21;;
70740;Laerm;58330;51.888;11.052;2023-02-21T12:42:03;37.34;33.41;51.74;;
70740;Laerm;58330;51.888;11.052;2023-02-21T12:44:32;37.50;31.49;48.19;;
70740;Laerm;58330;51.888;11.052;2023-02-21T12:47:01;38.87;32.54;49.27;;
70740;Laerm;58330;51.888;11.052;2023-02-21T12:49:30;37.78;32.21;51.56;;
70740;Laerm;58330;51.888;11.052;2023-02-21T12:51:59;38.07;32.19;49.57;;
70740;Laerm;58330;51.888;11.052;2023-02-21T12:54:33;37.81;32.41;47.96;;
70740;Laerm;58330;51.888;11.052;2023-02-21T12:57:02;38.34;32.27;50.68;;
70740;Laerm;58330;51.888;11.052;2023-02-21T12:59:31;35.54;32.19;41.14;;
70740;Laerm;58330;51.888;11.052;2023-02-21T13:02:00;37.82;32.25;49.71;;
70740;Laerm;58330;51.888;11.052;2023-02-21T13:04:31;37.59;31.91;48.64;;
70740;Laerm;58330;51.888;11.052;2023-02-21T13:07:01;35.01;31.93;46.68;;
70740;Laerm;58330;51.888;11.052;2023-02-21T13:09:32;35.42;31.86;45.43;;
70740;Laerm;58330;51.888;11.052;2023-02-21T13:12:01;37.21;31.96;46.99;;
70740;Laerm;58330;51.888;11.052;2023-02-21T13:14:30;35.79;32.32;43.40;;
70740;Laerm;58330;51.888;11.052;2023-02-21T13:16:58;36.93;32.33;45.17;;
70740;Laerm;58330;51.888;11.052;2023-02-21T13:19:25;35.39;32.47;41.55;;
70740;Laerm;58330;51.888;11.052;2023-02-21T13:22:00;35.59;32.61;42.76;;
70740;Laerm;58330;51.888;11.052;2023-02-21T13:24:40;36.76;32.49;48.96;;
70740;Laerm;58330;51.888;11.052;2023-02-21T13:27:27;36.34;31.76;46.23;;
70740;Laerm;58330;51.888;11.052;2023-02-21T13:29:58;36.63;32.38;48.99;;
70740;Laerm;58330;51.888;11.052;2023-02-21T13:32:27;36.22;32.45;48.12;;
70740;Laerm;58330;51.888;11.052;2023-02-21T13:35:01;37.51;32.34;49.96;;
70740;Laerm;58330;51.888;11.052;2023-02-21T13:37:31;36.61;32.31;43.33;;
70740;Laerm;58330;51.888;11.052;2023-02-21T13:40:04;36.05;32.79;44.14;;
70740;Laerm;58330;51.888;11.052;2023-02-21T13:42:33;37.26;32.02;45.90;;
70740;Laerm;58330;51.888;11.052;2023-02-21T13:45:06;37.32;32.49;46.26;;
70740;Laerm;58330;51.888;11.052;2023-02-21T13:50:43;36.86;32.69;46.21;;
70740;Laerm;58330;51.888;11.052;2023-02-21T13:53:11;37.62;32.43;48.81;;
70740;Laerm;58330;51.888;11.052;2023-02-21T13:55:55;39.32;33.24;49.85;;
70740;Laerm;58330;51.888;11.052;2023-02-21T13:58:37;39.23;33.07;48.71;;
70740;Laerm;58330;51.888;11.052;2023-02-21T14:01:14;39.64;32.48;61.10;;
70740;Laerm;58330;51.888;11.052;2023-02-21T14:03:41;55.97;32.55;78.60;;